sensor_id;sensor_type;location;lat;lon;timestamp;pressure;altitude;pressure_sealevel;temperature;humidity
60832;BME280;46665;51.558;-0.448;2023-02-20T00:02:30;102105.00;;;5.64;100.00
60832;BME280;46665;51.558;-0.448;2023-02-20T00:05:15;102109.59;;;5.64;100.00
60832;BME280;46665;51.558;-0.448;2023-02-20T00:07:59;102109.81;;;5.62;100.00
60832;BME280;46665;51.558;-0.448;2023-02-20T00:10:44;102098.59;;;5.65;100.00
60832;BME280;46665;51.558;-0.448;2023-02-20T00:13:28;102115.41;;;5.68;100.00
60832;BME280;46665;51.558;-0.448;2023-02-20T00:16:12;102105.63;;;5.67;100.00
60832;BME280;46665;51.558;-0.448;2023-02-20T00:18:56;102095.47;;;5.62;100.00
60832;BME280;46665;51.558;-0.448;2023-02-20T00:21:44;102095.88;;;5.65;100.00
60832;BME280;46665;51.558;-0.448;2023-02-20T00:24:29;102102.09;;;5.66;100.00
60832;BME280;46665;51.558;-0.448;2023-02-20T00:27:13;102086.72;;;5.67;100.00
60832;BME280;46665;51.558;-0.448;2023-02-20T00:29:57;102089.84;;;5.70;100.00
60832;BME280;46665;51.558;-0.448;2023-02-20T00:32:41;102084.22;;;5.72;100.00
60832;BME280;46665;51.558;-0.448;2023-02-20T00:35:25;102073.59;;;5.77;100.00
60832;BME280;46665;51.558;-0.448;2023-02-20T00:38:10;102075.03;;;5.79;100.00
60832;BME280;46665;51.558;-0.448;2023-02-20T00:40:53;102067.56;;;5.81;100.00
60832;BME280;46665;51.558;-0.448;2023-02-20T00:43:37;102071.94;;;5.82;100.00
60832;BME280;46665;51.558;-0.448;2023-02-20T00:46:21;102065.28;;;5.85;100.00
60832;BME280;46665;51.558;-0.448;2023-02-20T00:49:05;102056.50;;;5.90;100.00
60832;BME280;46665;51.558;-0.448;2023-02-20T00:51:49;102053.19;;;5.94;100.00
60832;BME280;46665;51.558;-0.448;2023-02-20T00:54:33;102053.00;;;5.96;100.00
60832;BME280;46665;51.558;-0.448;2023-02-20T00:57:17;102060.47;;;5.94;100.00
60832;BME280;46665;51.558;-0.448;2023-02-20T01:00:03;102050.06;;;5.97;100.00
60832;BME280;46665;51.558;-0.448;2023-02-20T01:02:48;102054.59;;;6.03;100.00
60832;BME280;46665;51.558;-0.448;2023-02-20T01:05:32;102048.31;;;6.10;100.00
60832;BME280;46665;51.558;-0.448;2023-02-20T01:08:16;102051.84;;;6.10;100.00
60832;BME280;46665;51.558;-0.448;2023-02-20T01:11:00;102031.91;;;6.11;100.00
60832;BME280;46665;51.558;-0.448;2023-02-20T01:13:44;102045.41;;;6.11;100.00
60832;BME280;46665;51.558;-0.448;2023-02-20T01:16:28;102038.34;;;6.10;100.00
60832;BME280;46665;51.558;-0.448;2023-02-20T01:19:12;102033.78;;;6.11;100.00
60832;BME280;46665;51.558;-0.448;2023-02-20T01:21:57;102034.59;;;6.11;100.00
60832;BME280;46665;51.558;-0.448;2023-02-20T01:24:41;102027.13;;;6.13;100.00
60832;BME280;46665;51.558;-0.448;2023-02-20T01:27:26;102031.63;;;6.19;100.00
60832;BME280;46665;51.558;-0.448;2023-02-20T01:30:10;102014.97;;;6.22;100.00
60832;BME280;46665;51.558;-0.448;2023-02-20T01:32:53;102021.44;;;6.21;100.00
60832;BME280;46665;51.558;-0.448;2023-02-20T01:35:37;102006.47;;;6.25;100.00
60832;BME280;46665;51.558;-0.448;2023-02-20T01:38:21;102014.13;;;6.28;100.00
60832;BME280;46665;51.558;-0.448;2023-02-20T01:41:09;102018.72;;;6.28;100.00
60832;BME280;46665;51.558;-0.448;2023-02-20T01:43:54;102017.66;;;6.29;100.00
60832;BME280;46665;51.558;-0.448;2023-02-20T01:49:27;102012.63;;;6.33;100.00
60832;BME280;46665;51.558;-0.448;2023-02-20T01:52:30;101998.69;;;6.36;100.00
60832;BME280;46665;51.558;-0.448;2023-02-20T01:55:25;101995.38;;;6.34;100.00
60832;BME280;46665;51.558;-0.448;2023-02-20T01:58:15;102002.66;;;6.33;100.00
60832;BME280;46665;51.558;-0.448;2023-02-20T02:01:02;102004.09;;;6.36;100.00
60832;BME280;46665;51.558;-0.448;2023-02-20T02:03:48;102002.59;;;6.40;100.00
60832;BME280;46665;51.558;-0.448;2023-02-20T02:06:37;101996.34;;;6.39;100.00
60832;BME280;46665;51.558;-0.448;2023-02-20T02:09:31;102002.81;;;6.38;100.00
60832;BME280;46665;51.558;-0.448;2023-02-20T02:12:17;101995.28;;;6.40;100.00
60832;BME280;46665;51.558;-0.448;2023-02-20T02:15:01;101994.03;;;6.43;100.00
60832;BME280;46665;51.558;-0.448;2023-02-20T02:42:25;101975.06;;;6.49;100.00
60832;BME280;46665;51.558;-0.448;2023-02-20T02:45:22;101974.84;;;6.51;100.00
60832;BME280;46665;51.558;-0.448;2023-02-20T02:48:27;101978.28;;;6.58;100.00
60832;BME280;46665;51.558;-0.448;2023-02-20T02:51:16;101974.56;;;6.59;100.00
60832;BME280;46665;51.558;-0.448;2023-02-20T02:54:19;101981.41;;;6.62;100.00
60832;BME280;46665;51.558;-0.448;2023-02-20T02:57:24;101969.06;;;6.66;100.00
60832;BME280;46665;51.558;-0.448;2023-02-20T03:00:12;101970.59;;;6.62;100.00
60832;BME280;46665;51.558;-0.448;2023-02-20T03:03:11;101956.44;;;6.60;100.00
60832;BME280;46665;51.558;-0.448;2023-02-20T03:06:02;101977.44;;;6.64;100.00
60832;BME280;46665;51.558;-0.448;2023-02-20T03:08:52;101950.81;;;6.61;100.00
60832;BME280;46665;51.558;-0.448;2023-02-20T03:11:40;101960.59;;;6.62;100.00
60832;BME280;46665;51.558;-0.448;2023-02-20T03:14:31;101965.78;;;6.64;100.00
60832;BME280;46665;51.558;-0.448;2023-02-20T03:17:45;101956.00;;;6.63;100.00
60832;BME280;46665;51.558;-0.448;2023-02-20T03:20:31;101959.31;;;6.65;100.00
60832;BME280;46665;51.558;-0.448;2023-02-20T03:23:23;101963.66;;;6.66;100.00
60832;BME280;46665;51.558;-0.448;2023-02-20T03:26:12;101962.84;;;6.65;100.00
60832;BME280;46665;51.558;-0.448;2023-02-20T03:29:05;101960.97;;;6.66;100.00
60832;BME280;46665;51.558;-0.448;2023-02-20T03:32:00;101949.94;;;6.67;100.00
60832;BME280;46665;51.558;-0.448;2023-02-20T03:35:05;101955.13;;;6.69;100.00
60832;BME280;46665;51.558;-0.448;2023-02-20T03:38:09;101963.91;;;6.64;100.00
60832;BME280;46665;51.558;-0.448;2023-02-20T03:41:13;101965.78;;;6.64;100.00
60832;BME280;46665;51.558;-0.448;2023-02-20T03:44:17;101969.47;;;6.69;100.00
60832;BME280;46665;51.558;-0.448;2023-02-20T03:47:06;101951.34;;;6.70;100.00
60832;BME280;46665;51.558;-0.448;2023-02-20T03:49:53;101953.25;;;6.69;100.00
60832;BME280;46665;51.558;-0.448;2023-02-20T03:52:39;101944.91;;;6.71;100.00
60832;BME280;46665;51.558;-0.448;2023-02-20T03:55:23;101943.91;;;6.65;100.00
60832;BME280;46665;51.558;-0.448;2023-02-20T03:58:09;101944.72;;;6.66;100.00
60832;BME280;46665;51.558;-0.448;2023-02-20T04:00:54;101949.31;;;6.65;100.00
60832;BME280;46665;51.558;-0.448;2023-02-20T04:03:44;101946.84;;;6.64;100.00
60832;BME280;46665;51.558;-0.448;2023-02-20T04:06:31;101944.16;;;6.64;100.00
60832;BME280;46665;51.558;-0.448;2023-02-20T04:09:20;101948.13;;;6.61;100.00
60832;BME280;46665;51.558;-0.448;2023-02-20T04:12:16;101952.69;;;6.61;100.00
60832;BME280;46665;51.558;-0.448;2023-02-20T04:15:04;101956.06;;;6.56;100.00
60832;BME280;46665;51.558;-0.448;2023-02-20T04:17:55;101953.38;;;6.56;100.00
60832;BME280;46665;51.558;-0.448;2023-02-20T04:20:40;101960.88;;;6.54;100.00
60832;BME280;46665;51.558;-0.448;2023-02-20T04:23:25;101959.00;;;6.55;100.00
60832;BME280;46665;51.558;-0.448;2023-02-20T04:26:18;101959.00;;;6.55;100.00
60832;BME280;46665;51.558;-0.448;2023-02-20T04:29:04;101962.16;;;6.51;100.00
60832;BME280;46665;51.558;-0.448;2023-02-20T04:31:48;101964.59;;;6.53;100.00
60832;BME280;46665;51.558;-0.448;2023-02-20T04:34:32;101965.47;;;6.54;100.00
60832;BME280;46665;51.558;-0.448;2023-02-20T04:37:18;101970.03;;;6.53;100.00
60832;BME280;46665;51.558;-0.448;2023-02-20T04:40:02;101970.41;;;6.57;100.00
60832;BME280;46665;51.558;-0.448;2023-02-20T04:42:46;101970.63;;;6.55;100.00
60832;BME280;46665;51.558;-0.448;2023-02-20T04:45:30;101961.31;;;6.51;100.00
60832;BME280;46665;51.558;-0.448;2023-02-20T04:48:14;101971.69;;;6.54;100.00
60832;BME280;46665;51.558;-0.448;2023-02-20T04:50:58;101973.56;;;6.54;100.00
60832;BME280;46665;51.558;-0.448;2023-02-20T04:53:42;101986.84;;;6.55;100.00
60832;BME280;46665;51.558;-0.448;2023-02-20T04:56:26;101976.28;;;6.54;100.00
60832;BME280;46665;51.558;-0.448;2023-02-20T04:59:10;101986.84;;;6.55;100.00
60832;BME280;46665;51.558;-0.448;2023-02-20T05:01:54;101984.41;;;6.54;100.00
60832;BME280;46665;51.558;-0.448;2023-02-20T05:04:39;101983.53;;;6.53;100.00
60832;BME280;46665;51.558;-0.448;2023-02-20T05:07:23;101987.47;;;6.57;100.00
60832;BME280;46665;51.558;-0.448;2023-02-20T05:10:07;101981.69;;;6.54;100.00
60832;BME280;46665;51.558;-0.448;2023-02-20T05:12:51;101978.13;;;6.53;100.00
60832;BME280;46665;51.558;-0.448;2023-02-20T05:15:35;101989.41;;;6.50;100.00
60832;BME280;46665;51.558;-0.448;2023-02-20T05:18:27;101985.06;;;6.49;100.00
60832;BME280;46665;51.558;-0.448;2023-02-20T05:21:14;101992.09;;;6.50;100.00
60832;BME280;46665;51.558;-0.448;2023-02-20T05:24:17;101984.44;;;6.47;100.00
60832;BME280;46665;51.558;-0.448;2023-02-20T05:27:01;101972.81;;;6.46;100.00
60832;BME280;46665;51.558;-0.448;2023-02-20T05:29:50;101976.31;;;6.47;100.00
60832;BME280;46665;51.558;-0.448;2023-02-20T05:32:34;101976.78;;;6.44;100.00
60832;BME280;46665;51.558;-0.448;2023-02-20T05:35:18;101980.75;;;6.41;100.00
60832;BME280;46665;51.558;-0.448;2023-02-20T05:38:02;101975.38;;;6.35;100.00
60832;BME280;46665;51.558;-0.448;2023-02-20T05:40:46;101967.50;;;6.33;100.00
60832;BME280;46665;51.558;-0.448;2023-02-20T05:43:30;101974.56;;;6.34;100.00
60832;BME280;46665;51.558;-0.448;2023-02-20T05:46:15;101974.13;;;6.37;100.00
60832;BME280;46665;51.558;-0.448;2023-02-20T05:48:59;101975.00;;;6.31;100.00
60832;BME280;46665;51.558;-0.448;2023-02-20T05:51:43;101976.19;;;6.35;100.00
60832;BME280;46665;51.558;-0.448;2023-02-20T05:54:27;101963.75;;;6.34;100.00
60832;BME280;46665;51.558;-0.448;2023-02-20T05:57:12;101965.63;;;6.34;100.00
60832;BME280;46665;51.558;-0.448;2023-02-20T05:59:56;101966.81;;;6.38;100.00
60832;BME280;46665;51.558;-0.448;2023-02-20T06:02:40;101964.56;;;6.35;100.00
60832;BME280;46665;51.558;-0.448;2023-02-20T06:05:23;101974.06;;;6.44;100.00
60832;BME280;46665;51.558;-0.448;2023-02-20T06:08:09;101975.34;;;6.41;100.00
60832;BME280;46665;51.558;-0.448;2023-02-20T06:10:53;101968.88;;;6.42;100.00
60832;BME280;46665;51.558;-0.448;2023-02-20T06:13:40;101966.63;;;6.39;100.00
60832;BME280;46665;51.558;-0.448;2023-02-20T06:16:27;101974.28;;;6.42;100.00
60832;BME280;46665;51.558;-0.448;2023-02-20T06:19:16;101973.00;;;6.45;100.00
60832;BME280;46665;51.558;-0.448;2023-02-20T06:22:01;101972.81;;;6.46;100.00
60832;BME280;46665;51.558;-0.448;2023-02-20T06:24:46;101969.84;;;6.48;100.00
60832;BME280;46665;51.558;-0.448;2023-02-20T06:27:30;101963.25;;;6.44;100.00
60832;BME280;46665;51.558;-0.448;2023-02-20T06:30:14;101970.72;;;6.48;100.00
60832;BME280;46665;51.558;-0.448;2023-02-20T06:32:58;101980.47;;;6.49;100.00
60832;BME280;46665;51.558;-0.448;2023-02-20T06:35:42;101970.47;;;6.50;100.00
60832;BME280;46665;51.558;-0.448;2023-02-20T06:38:26;101960.09;;;6.47;100.00
60832;BME280;46665;51.558;-0.448;2023-02-20T06:41:10;101965.50;;;6.47;100.00
60832;BME280;46665;51.558;-0.448;2023-02-20T06:43:54;101969.84;;;6.48;100.00
60832;BME280;46665;51.558;-0.448;2023-02-20T06:46:38;101953.88;;;6.46;100.00
60832;BME280;46665;51.558;-0.448;2023-02-20T06:49:22;101945.75;;;6.46;100.00
60832;BME280;46665;51.558;-0.448;2023-02-20T06:52:06;101946.38;;;6.48;100.00
60832;BME280;46665;51.558;-0.448;2023-02-20T06:54:51;101935.97;;;6.45;100.00
60832;BME280;46665;51.558;-0.448;2023-02-20T06:57:37;101938.47;;;6.47;100.00
60832;BME280;46665;51.558;-0.448;2023-02-20T07:00:21;101943.66;;;6.48;100.00
60832;BME280;46665;51.558;-0.448;2023-02-20T07:03:05;101939.09;;;6.49;100.00
60832;BME280;46665;51.558;-0.448;2023-02-20T07:05:49;101939.91;;;6.49;100.00
60832;BME280;46665;51.558;-0.448;2023-02-20T07:08:33;101934.50;;;6.49;100.00
60832;BME280;46665;51.558;-0.448;2023-02-20T07:11:19;101935.09;;;6.51;100.00
60832;BME280;46665;51.558;-0.448;2023-02-20T07:14:04;101927.00;;;6.51;100.00
60832;BME280;46665;51.558;-0.448;2023-02-20T07:16:48;101934.03;;;6.53;100.00
60832;BME280;46665;51.558;-0.448;2023-02-20T07:19:32;101929.44;;;6.53;100.00
60832;BME280;46665;51.558;-0.448;2023-02-20T07:22:16;101933.84;;;6.54;100.00
60832;BME280;46665;51.558;-0.448;2023-02-20T07:25:00;101932.78;;;6.55;100.00
60832;BME280;46665;51.558;-0.448;2023-02-20T07:27:44;101931.75;;;6.56;100.00
60832;BME280;46665;51.558;-0.448;2023-02-20T07:30:28;101925.47;;;6.56;100.00
60832;BME280;46665;51.558;-0.448;2023-02-20T07:33:11;101926.09;;;6.58;100.00
60832;BME280;46665;51.558;-0.448;2023-02-20T07:35:56;101929.78;;;6.63;100.00
60832;BME280;46665;51.558;-0.448;2023-02-20T07:38:40;101928.13;;;6.62;100.00
60832;BME280;46665;51.558;-0.448;2023-02-20T07:41:26;101923.31;;;6.64;100.00
60832;BME280;46665;51.558;-0.448;2023-02-20T07:44:12;101927.84;;;6.70;100.00
60832;BME280;46665;51.558;-0.448;2023-02-20T07:46:57;101930.69;;;6.76;100.00
60832;BME280;46665;51.558;-0.448;2023-02-20T07:49:42;101942.38;;;6.76;100.00
60832;BME280;46665;51.558;-0.448;2023-02-20T07:52:26;101949.19;;;6.79;100.00
60832;BME280;46665;51.558;-0.448;2023-02-20T07:55:15;101947.53;;;6.78;100.00
60832;BME280;46665;51.558;-0.448;2023-02-20T07:57:59;101946.88;;;6.82;100.00
60832;BME280;46665;51.558;-0.448;2023-02-20T08:00:43;101953.72;;;6.85;100.00
60832;BME280;46665;51.558;-0.448;2023-02-20T08:03:27;101957.84;;;6.87;100.00
60832;BME280;46665;51.558;-0.448;2023-02-20T08:06:12;101953.84;;;6.90;100.00
60832;BME280;46665;51.558;-0.448;2023-02-20T08:08:56;101969.88;;;6.91;100.00
60832;BME280;46665;51.558;-0.448;2023-02-20T08:11:40;101974.38;;;6.98;100.00
60832;BME280;46665;51.558;-0.448;2023-02-20T08:14:24;101969.59;;;7.00;100.00
60832;BME280;46665;51.558;-0.448;2023-02-20T08:17:08;101970.78;;;7.04;100.00
60832;BME280;46665;51.558;-0.448;2023-02-20T08:19:54;101973.47;;;7.04;100.00
60832;BME280;46665;51.558;-0.448;2023-02-20T08:22:38;101961.63;;;7.05;100.00
60832;BME280;46665;51.558;-0.448;2023-02-20T08:25:22;101969.50;;;7.06;100.00
60832;BME280;46665;51.558;-0.448;2023-02-20T08:28:06;101995.69;;;7.12;100.00
60832;BME280;46665;51.558;-0.448;2023-02-20T08:30:50;101981.69;;;7.15;100.00
60832;BME280;46665;51.558;-0.448;2023-02-20T08:33:34;101989.97;;;7.21;100.00
60832;BME280;46665;51.558;-0.448;2023-02-20T08:36:18;101974.31;;;7.23;100.00
60832;BME280;46665;51.558;-0.448;2023-02-20T08:39:03;101980.34;;;7.25;100.00
60832;BME280;46665;51.558;-0.448;2023-02-20T08:41:46;101977.84;;;7.23;100.00
60832;BME280;46665;51.558;-0.448;2023-02-20T08:44:31;101992.00;;;7.25;100.00
60832;BME280;46665;51.558;-0.448;2023-02-20T08:47:18;101986.94;;;7.29;100.00
60832;BME280;46665;51.558;-0.448;2023-02-20T08:50:03;101985.22;;;7.34;100.00
60832;BME280;46665;51.558;-0.448;2023-02-20T08:52:47;101985.81;;;7.36;100.00
60832;BME280;46665;51.558;-0.448;2023-02-20T08:55:31;101988.09;;;7.40;100.00
60832;BME280;46665;51.558;-0.448;2023-02-20T08:58:22;101989.94;;;7.39;100.00
60832;BME280;46665;51.558;-0.448;2023-02-20T09:01:07;102003.88;;;7.43;100.00
60832;BME280;46665;51.558;-0.448;2023-02-20T09:03:51;101997.19;;;7.45;100.00
60832;BME280;46665;51.558;-0.448;2023-02-20T09:06:35;101994.00;;;7.48;100.00
60832;BME280;46665;51.558;-0.448;2023-02-20T09:09:19;101976.13;;;7.47;100.00
60832;BME280;46665;51.558;-0.448;2023-02-20T09:12:05;101980.41;;;7.55;100.00
60832;BME280;46665;51.558;-0.448;2023-02-20T09:14:49;101973.69;;;7.57;100.00
60832;BME280;46665;51.558;-0.448;2023-02-20T09:17:33;101969.59;;;7.67;100.00
60832;BME280;46665;51.558;-0.448;2023-02-20T09:20:18;101973.72;;;7.69;100.00
60832;BME280;46665;51.558;-0.448;2023-02-20T09:23:03;101976.22;;;7.71;100.00
60832;BME280;46665;51.558;-0.448;2023-02-20T09:25:48;101974.47;;;7.76;100.00
60832;BME280;46665;51.558;-0.448;2023-02-20T09:28:31;101963.88;;;7.75;100.00
60832;BME280;46665;51.558;-0.448;2023-02-20T09:31:15;101963.88;;;7.75;100.00
60832;BME280;46665;51.558;-0.448;2023-02-20T09:33:59;101957.53;;;7.81;100.00
60832;BME280;46665;51.558;-0.448;2023-02-20T09:36:44;101954.94;;;7.86;100.00
60832;BME280;46665;51.558;-0.448;2023-02-20T09:39:27;101961.56;;;7.90;100.00
60832;BME280;46665;51.558;-0.448;2023-02-20T09:42:38;101965.69;;;7.93;100.00
60832;BME280;46665;51.558;-0.448;2023-02-20T09:45:31;101968.75;;;7.96;100.00
60832;BME280;46665;51.558;-0.448;2023-02-20T09:48:38;101963.13;;;7.98;100.00
60832;BME280;46665;51.558;-0.448;2023-02-20T09:51:29;101965.59;;;7.99;100.00
60832;BME280;46665;51.558;-0.448;2023-02-20T09:54:20;101968.75;;;7.96;100.00
60832;BME280;46665;51.558;-0.448;2023-02-20T09:57:13;101961.22;;;7.98;100.00
60832;BME280;46665;51.558;-0.448;2023-02-20T10:00:23;101968.44;;;8.04;100.00
60832;BME280;46665;51.558;-0.448;2023-02-20T10:06:32;101948.66;;;8.16;100.00
60832;BME280;46665;51.558;-0.448;2023-02-20T10:09:16;101947.72;;;8.22;100.00
60832;BME280;46665;51.558;-0.448;2023-02-20T10:24:05;101919.81;;;8.45;100.00
60832;BME280;46665;51.558;-0.448;2023-02-20T10:27:24;101923.94;;;8.48;100.00
60832;BME280;46665;51.558;-0.448;2023-02-20T10:30:05;101935.50;;;8.55;100.00
60832;BME280;46665;51.558;-0.448;2023-02-20T10:33:22;101954.63;;;8.60;100.00
60832;BME280;46665;51.558;-0.448;2023-02-20T10:36:18;101956.41;;;8.66;100.00
60832;BME280;46665;51.558;-0.448;2023-02-20T10:39:12;101944.97;;;8.64;100.00
60832;BME280;46665;51.558;-0.448;2023-02-20T10:42:02;101934.44;;;8.67;100.00
60832;BME280;46665;51.558;-0.448;2023-02-20T10:45:03;101932.94;;;8.72;100.00
60832;BME280;46665;51.558;-0.448;2023-02-20T10:47:58;101928.09;;;8.74;100.00
60832;BME280;46665;51.558;-0.448;2023-02-20T10:51:11;101936.69;;;8.82;100.00
60832;BME280;46665;51.558;-0.448;2023-02-20T10:54:06;101934.09;;;8.87;100.00
60832;BME280;46665;51.558;-0.448;2023-02-20T10:57:02;101930.19;;;8.95;100.00
60832;BME280;46665;51.558;-0.448;2023-02-20T10:59:57;101922.97;;;9.01;100.00
60832;BME280;46665;51.558;-0.448;2023-02-20T11:02:58;101934.28;;;9.09;100.00
60832;BME280;46665;51.558;-0.448;2023-02-20T11:05:47;101928.81;;;9.21;100.00
60832;BME280;46665;51.558;-0.448;2023-02-20T11:08:34;101913.22;;;9.28;100.00
60832;BME280;46665;51.558;-0.448;2023-02-20T11:11:38;101918.50;;;9.35;100.00
60832;BME280;46665;51.558;-0.448;2023-02-20T11:14:45;101908.66;;;9.46;100.00
60832;BME280;46665;51.558;-0.448;2023-02-20T11:17:33;101895.97;;;9.51;100.00
60832;BME280;46665;51.558;-0.448;2023-02-20T11:26:29;101894.22;;;9.74;100.00
60832;BME280;46665;51.558;-0.448;2023-02-20T11:29:15;101900.19;;;9.88;100.00
60832;BME280;46665;51.558;-0.448;2023-02-20T11:32:28;101907.38;;;10.11;100.00
60832;BME280;46665;51.558;-0.448;2023-02-20T11:38:26;101890.13;;;10.22;100.00
60832;BME280;46665;51.558;-0.448;2023-02-20T11:41:24;101881.91;;;10.34;100.00
60832;BME280;46665;51.558;-0.448;2023-02-20T11:47:27;101897.13;;;10.69;100.00
60832;BME280;46665;51.558;-0.448;2023-02-20T11:50:18;101905.09;;;10.75;100.00
60832;BME280;46665;51.558;-0.448;2023-02-20T11:53:04;101907.00;;;10.75;100.00
60832;BME280;46665;51.558;-0.448;2023-02-20T11:59:27;101900.53;;;10.81;100.00
60832;BME280;46665;51.558;-0.448;2023-02-20T12:05:11;101887.34;;;10.73;100.00
60832;BME280;46665;51.558;-0.448;2023-02-20T12:07:58;101889.03;;;10.74;100.00
60832;BME280;46665;51.558;-0.448;2023-02-20T12:10:45;101888.69;;;10.70;100.00
60832;BME280;46665;51.558;-0.448;2023-02-20T12:13:37;101871.53;;;10.70;100.00
60832;BME280;46665;51.558;-0.448;2023-02-20T12:16:33;101878.69;;;10.76;100.00
60832;BME280;46665;51.558;-0.448;2023-02-20T12:19:37;101877.63;;;10.77;100.00
60832;BME280;46665;51.558;-0.448;2023-02-20T12:22:43;101872.59;;;10.91;100.00
60832;BME280;46665;51.558;-0.448;2023-02-20T12:25:41;101867.69;;;11.10;100.00
60832;BME280;46665;51.558;-0.448;2023-02-20T12:31:49;101858.81;;;11.19;100.00
60832;BME280;46665;51.558;-0.448;2023-02-20T12:47:42;101838.69;;;11.25;100.00
60832;BME280;46665;51.558;-0.448;2023-02-20T12:50:55;101835.22;;;11.30;100.00
60832;BME280;46665;51.558;-0.448;2023-02-20T12:53:55;101837.59;;;11.26;100.00
60832;BME280;46665;51.558;-0.448;2023-02-20T12:56:52;101835.44;;;11.28;100.00
60832;BME280;46665;51.558;-0.448;2023-02-20T13:02:45;101831.03;;;11.22;100.00
60832;BME280;46665;51.558;-0.448;2023-02-20T13:05:31;101828.03;;;11.24;100.00
60832;BME280;46665;51.558;-0.448;2023-02-20T13:08:29;101832.63;;;11.18;100.00
60832;BME280;46665;51.558;-0.448;2023-02-20T13:11:20;101823.09;;;11.21;100.00
60832;BME280;46665;51.558;-0.448;2023-02-20T13:19:57;101823.03;;;11.38;100.00
60832;BME280;46665;51.558;-0.448;2023-02-20T13:23:04;101818.53;;;11.26;100.00
60832;BME280;46665;51.558;-0.448;2023-02-20T13:25:49;101813.59;;;11.23;100.00
60832;BME280;46665;51.558;-0.448;2023-02-20T13:28:37;101803.53;;;11.24;100.00
60832;BME280;46665;51.558;-0.448;2023-02-20T13:37:04;101802.53;;;11.08;100.00
60832;BME280;46665;51.558;-0.448;2023-02-20T13:48:46;101785.94;;;11.37;100.00
60832;BME280;46665;51.558;-0.448;2023-02-20T13:51:32;101771.53;;;11.41;100.00
60832;BME280;46665;51.558;-0.448;2023-02-20T13:54:22;101766.97;;;11.47;100.00
60832;BME280;46665;51.558;-0.448;2023-02-20T13:57:16;101770.50;;;11.47;100.00
60832;BME280;46665;51.558;-0.448;2023-02-20T14:00:00;101767.78;;;11.47;100.00
60832;BME280;46665;51.558;-0.448;2023-02-20T14:02:45;101761.28;;;11.54;100.00
60832;BME280;46665;51.558;-0.448;2023-02-20T14:05:31;101749.59;;;11.58;100.00
60832;BME280;46665;51.558;-0.448;2023-02-20T14:08:17;101753.19;;;11.64;100.00
60832;BME280;46665;51.558;-0.448;2023-02-20T14:14:02;101751.78;;;11.93;98.94
60832;BME280;46665;51.558;-0.448;2023-02-20T14:16:49;101747.81;;;12.11;98.67
60832;BME280;46665;51.558;-0.448;2023-02-20T14:19:37;101751.38;;;12.17;97.42
60832;BME280;46665;51.558;-0.448;2023-02-20T14:22:33;101749.19;;;12.14;97.35
60832;BME280;46665;51.558;-0.448;2023-02-20T14:25:25;101771.56;;;12.16;97.71
60832;BME280;46665;51.558;-0.448;2023-02-20T14:28:14;101742.31;;;12.06;97.16
60832;BME280;46665;51.558;-0.448;2023-02-20T14:31:17;101750.50;;;12.06;98.20
60832;BME280;46665;51.558;-0.448;2023-02-20T14:34:25;101743.41;;;12.05;97.28
60832;BME280;46665;51.558;-0.448;2023-02-20T14:42:59;101743.09;;;12.02;98.28
60832;BME280;46665;51.558;-0.448;2023-02-20T14:45:45;101738.25;;;12.09;97.41
60832;BME280;46665;51.558;-0.448;2023-02-20T14:48:35;101734.38;;;12.05;97.02
60832;BME280;46665;51.558;-0.448;2023-02-20T14:51:24;101735.50;;;12.09;97.06
60832;BME280;46665;51.558;-0.448;2023-02-20T14:54:24;101738.25;;;12.09;96.96
60832;BME280;46665;51.558;-0.448;2023-02-20T14:57:13;101731.13;;;12.03;96.69
60832;BME280;46665;51.558;-0.448;2023-02-20T15:03:09;101727.50;;;11.92;97.78
60832;BME280;46665;51.558;-0.448;2023-02-20T15:05:59;101728.84;;;11.89;98.34
60832;BME280;46665;51.558;-0.448;2023-02-20T15:08:44;101727.41;;;11.82;99.33
60832;BME280;46665;51.558;-0.448;2023-02-20T15:11:28;101723.88;;;11.81;98.45
60832;BME280;46665;51.558;-0.448;2023-02-20T15:14:26;101718.94;;;11.78;98.81
60832;BME280;46665;51.558;-0.448;2023-02-20T15:19:57;101727.72;;;11.85;98.11
60832;BME280;46665;51.558;-0.448;2023-02-20T15:22:42;101718.38;;;11.76;99.03
60832;BME280;46665;51.558;-0.448;2023-02-20T15:25:29;101718.41;;;11.81;99.48
60832;BME280;46665;51.558;-0.448;2023-02-20T15:31:05;101721.66;;;11.78;98.79
60832;BME280;46665;51.558;-0.448;2023-02-20T15:33:52;101718.16;;;11.83;99.06
60832;BME280;46665;51.558;-0.448;2023-02-20T15:36:36;101707.50;;;11.81;98.73
60832;BME280;46665;51.558;-0.448;2023-02-20T15:39:21;101715.09;;;11.74;99.23
60832;BME280;46665;51.558;-0.448;2023-02-20T15:42:10;101704.63;;;11.61;99.00
60832;BME280;46665;51.558;-0.448;2023-02-20T15:44:54;101713.88;;;11.55;99.30
60832;BME280;46665;51.558;-0.448;2023-02-20T15:47:38;101707.28;;;11.50;99.95
60832;BME280;46665;51.558;-0.448;2023-02-20T15:50:22;101690.38;;;11.48;99.88
60832;BME280;46665;51.558;-0.448;2023-02-20T15:53:10;101698.31;;;11.50;100.00
60832;BME280;46665;51.558;-0.448;2023-02-20T15:55:59;101695.28;;;11.52;100.00
60832;BME280;46665;51.558;-0.448;2023-02-20T15:58:44;101695.34;;;11.57;100.00
60832;BME280;46665;51.558;-0.448;2023-02-20T16:01:29;101697.25;;;11.56;100.00
60832;BME280;46665;51.558;-0.448;2023-02-20T16:04:15;101713.06;;;11.59;100.00
60832;BME280;46665;51.558;-0.448;2023-02-20T16:06:59;101708.13;;;11.51;100.00
60832;BME280;46665;51.558;-0.448;2023-02-20T16:09:43;101704.53;;;11.45;100.00
60832;BME280;46665;51.558;-0.448;2023-02-20T16:12:29;101701.81;;;11.45;100.00
60832;BME280;46665;51.558;-0.448;2023-02-20T16:15:17;101699.34;;;11.44;100.00
60832;BME280;46665;51.558;-0.448;2023-02-20T16:18:03;101692.78;;;11.40;100.00
60832;BME280;46665;51.558;-0.448;2023-02-20T16:20:47;101694.63;;;11.34;100.00
60832;BME280;46665;51.558;-0.448;2023-02-20T16:23:31;101693.25;;;11.32;100.00
60832;BME280;46665;51.558;-0.448;2023-02-20T16:26:18;101685.59;;;11.28;100.00